Time;durP1;ratioP1;P1;durP2;ratioP2;P2;SDS_P1;SDS_P2;PMS_P1;PMS_P2;Temp;Humidity;BMP_temperature;BMP_pressure;BME280_temperature;BME280_humidity;BME280_pressure;Samples;Min_cycle;Max_cycle;Signal;HPM_P1;HPM_P2
2021/11/25 00:01:42;;;;;;;11.57;5.47;;;0.30;99.90;;;;;;4999222;28;20540;-67
2021/11/25 00:04:08;;;;;;;15.23;6.97;;;0.30;99.90;;;;;;5020930;28;20033;-67
2021/11/25 00:06:33;;;;;;;16.50;7.13;;;0.30;99.90;;;;;;5018119;28;20147;-68
2021/11/25 00:08:59;;;;;;;12.18;6.85;;;0.30;99.90;;;;;;5019730;28;20045;-68
2021/11/25 00:11:25;;;;;;;15.23;6.70;;;0.30;99.90;;;;;;5019686;28;20026;-68
2021/11/25 00:13:51;;;;;;;11.82;5.90;;;0.30;99.90;;;;;;5020519;28;20044;-68
2021/11/25 00:16:17;;;;;;;10.20;5.72;;;0.30;99.90;;;;;;5020596;28;20029;-68
2021/11/25 00:18:43;;;;;;;13.90;7.13;;;0.30;99.90;;;;;;5019841;28;20561;-68
2021/11/25 00:21:10;;;;;;;10.52;5.25;;;0.40;99.90;;;;;;5015397;28;20030;-68
2021/11/25 00:23:37;;;;;;;13.13;7.05;;;0.40;99.90;;;;;;5017539;28;20480;-68
2021/11/25 00:26:03;;;;;;;13.82;6.78;;;0.40;99.90;;;;;;5018111;28;20145;-68
2021/11/25 00:28:30;;;;;;;16.13;6.93;;;0.40;99.90;;;;;;5018936;28;20533;-68
2021/11/25 00:30:55;;;;;;;12.52;7.30;;;0.40;99.90;;;;;;5020211;28;20561;-68
2021/11/25 00:33:21;;;;;;;19.45;8.10;;;0.40;99.90;;;;;;5019151;28;20108;-68
2021/11/25 00:35:47;;;;;;;13.85;6.95;;;0.40;99.90;;;;;;5019633;28;20029;-68
2021/11/25 00:38:12;;;;;;;11.43;6.40;;;0.30;99.90;;;;;;5020057;28;20030;-68
2021/11/25 00:40:38;;;;;;;19.67;7.93;;;0.30;99.90;;;;;;5000100;28;20030;-68
2021/11/25 00:43:03;;;;;;;16.33;7.28;;;0.30;99.90;;;;;;5019484;28;20037;-68
2021/11/25 00:45:29;;;;;;;13.07;6.40;;;0.30;99.90;;;;;;5020338;28;20719;-68
2021/11/25 00:47:55;;;;;;;9.23;5.32;;;0.30;99.90;;;;;;5014759;28;20124;-68
2021/11/25 00:50:21;;;;;;;13.30;7.60;;;0.30;99.90;;;;;;5003263;28;20486;-67
2021/11/25 00:52:48;;;;;;;13.10;7.35;;;0.30;99.90;;;;;;5020021;28;20041;-68
2021/11/25 00:55:14;;;;;;;15.07;8.45;;;0.30;99.90;;;;;;5022198;28;20028;-68
2021/11/25 00:57:40;;;;;;;16.95;7.90;;;0.30;99.90;;;;;;5016093;28;20987;-68
2021/11/25 01:00:09;;;;;;;18.85;8.32;;;0.30;99.90;;;;;;5004063;28;20037;-68
2021/11/25 01:02:34;;;;;;;;;;;0.30;99.90;;;;;;5016107;28;20030;-68
2021/11/25 01:05:00;;;;;;;16.20;7.75;;;0.30;99.90;;;;;;4998647;28;19924;-68
2021/11/25 01:07:26;;;;;;;20.02;9.60;;;0.20;99.90;;;;;;5021337;28;20450;-68
2021/11/25 01:09:52;;;;;;;14.15;8.27;;;0.30;99.90;;;;;;5016011;28;20053;-68
2021/11/25 01:12:17;;;;;;;15.25;7.03;;;0.30;99.90;;;;;;5018534;28;20076;-68
2021/11/25 01:14:43;;;;;;;14.00;7.43;;;0.20;99.90;;;;;;5020350;28;20108;-68
2021/11/25 01:17:09;;;;;;;16.60;7.50;;;0.20;99.90;;;;;;5017305;28;20033;-68
2021/11/25 01:19:36;;;;;;;10.45;6.25;;;0.30;99.90;;;;;;5015585;28;20472;-68
2021/11/25 01:22:02;;;;;;;11.18;7.10;;;0.30;99.90;;;;;;5013400;28;20026;-68
2021/11/25 01:24:28;;;;;;;18.20;9.60;;;0.30;99.90;;;;;;5014146;28;20095;-68
2021/11/25 01:26:55;;;;;;;16.95;11.80;;;0.20;99.90;;;;;;5019181;28;20048;-68
2021/11/25 01:29:21;;;;;;;17.35;8.70;;;0.20;99.90;;;;;;5016096;28;20022;-68
2021/11/25 01:31:46;;;;;;;18.55;7.53;;;0.30;99.90;;;;;;4997222;28;20595;-68
2021/11/25 01:34:12;;;;;;;12.48;7.18;;;0.30;99.90;;;;;;5001489;28;20064;-68
2021/11/25 01:36:38;;;;;;;13.02;6.68;;;0.30;99.90;;;;;;5000911;28;20028;-68
2021/11/25 01:39:05;;;;;;;17.02;7.10;;;0.20;99.90;;;;;;5019870;28;20044;-68
2021/11/25 01:41:31;;;;;;;16.77;8.32;;;0.30;99.90;;;;;;5020272;28;20022;-68
2021/11/25 01:43:57;;;;;;;14.50;8.63;;;0.30;99.90;;;;;;5018039;28;20501;-68
2021/11/25 01:46:22;;;;;;;16.75;9.25;;;0.30;99.90;;;;;;5021624;28;20066;-68
2021/11/25 01:48:49;;;;;;;15.50;7.60;;;0.30;99.90;;;;;;4999542;28;20032;-68
2021/11/25 01:51:17;;;;;;;16.02;9.27;;;0.30;99.90;;;;;;5019978;28;20041;-68
2021/11/25 01:53:42;;;;;;;17.45;7.68;;;0.30;99.90;;;;;;5018535;28;20038;-68
2021/11/25 01:56:10;;;;;;;12.43;6.57;;;0.30;99.90;;;;;;5016107;28;21040;-68
2021/11/25 01:58:36;;;;;;;15.27;7.40;;;0.40;99.90;;;;;;5019607;28;20132;-68
2021/11/25 02:01:06;;;;;;;8.75;5.82;;;0.40;99.90;;;;;;5018459;28;20038;-67
2021/11/25 02:03:32;;;;;;;16.40;7.93;;;0.40;99.90;;;;;;5001319;28;20128;-67
2021/11/25 02:05:58;;;;;;;18.48;9.00;;;0.40;99.90;;;;;;5019500;28;20092;-67
2021/11/25 02:08:24;;;;;;;18.35;7.88;;;0.40;99.90;;;;;;4995752;28;20029;-67
2021/11/25 02:10:52;;;;;;;17.73;7.38;;;0.30;99.90;;;;;;5002944;28;20503;-67
2021/11/25 02:13:19;;;;;;;18.87;7.70;;;0.30;99.90;;;;;;5016586;28;20038;-67
2021/11/25 02:15:46;;;;;;;18.65;8.50;;;0.30;99.90;;;;;;5003160;28;20534;-67
2021/11/25 02:18:14;;;;;;;16.80;8.07;;;0.30;99.90;;;;;;5018065;28;20467;-67
2021/11/25 02:20:49;;;;;;;14.18;8.25;;;0.30;99.90;;;;;;5016140;28;20474;-67
2021/11/25 02:23:17;;;;;;;15.40;7.82;;;0.30;99.90;;;;;;5019911;28;20091;-67
2021/11/25 02:25:43;;;;;;;15.60;7.83;;;0.30;99.90;;;;;;5016764;28;20029;-67
2021/11/25 02:28:09;;;;;;;17.38;8.70;;;0.40;99.90;;;;;;5000085;28;20029;-67
2021/11/25 02:30:36;;;;;;;16.63;8.80;;;0.40;99.90;;;;;;5015855;28;20048;-66
2021/11/25 02:33:02;;;;;;;14.80;7.25;;;0.40;99.90;;;;;;5017274;28;20120;-66
2021/11/25 02:35:31;;;;;;;14.60;7.15;;;0.40;99.90;;;;;;5023469;28;20109;-67
2021/11/25 02:37:57;;;;;;;19.88;9.18;;;0.40;99.90;;;;;;5002575;28;20490;-67
2021/11/25 02:40:34;;;;;;;17.02;7.90;;;0.40;99.90;;;;;;5024258;28;20123;-67
2021/11/25 02:43:10;;;;;;;20.10;7.97;;;0.40;99.90;;;;;;5004441;28;20036;-66
2021/11/25 02:45:57;;;;;;;21.27;8.38;;;0.40;99.90;;;;;;5022168;28;20037;-67
2021/11/25 02:48:36;;;;;;;13.77;9.18;;;0.40;99.90;;;;;;5016527;28;20763;-67
2021/11/25 02:51:02;;;;;;;16.65;7.88;;;0.40;99.90;;;;;;5022201;28;20018;-67
2021/11/25 02:53:30;;;;;;;16.50;7.25;;;0.40;99.90;;;;;;5020790;28;20095;-67
2021/11/25 02:55:58;;;;;;;19.30;8.13;;;0.30;99.90;;;;;;5024011;28;20036;-67
2021/11/25 02:58:25;;;;;;;24.58;10.23;;;0.30;99.90;;;;;;5022925;28;20117;-67
2021/11/25 03:00:52;;;;;;;19.70;8.05;;;0.40;99.90;;;;;;5002248;28;20034;-67
2021/11/25 03:03:18;;;;;;;20.88;8.07;;;0.30;99.90;;;;;;5021821;28;20036;-67
2021/11/25 03:05:47;;;;;;;22.98;9.20;;;0.30;99.90;;;;;;5018382;28;20546;-67
2021/11/25 03:08:13;;;;;;;;;;;0.30;99.90;;;;;;5025812;28;20040;-67
2021/11/25 03:10:40;;;;;;;13.07;6.38;;;0.30;99.90;;;;;;5024430;28;20273;-67
2021/11/25 03:13:08;;;;;;;19.80;8.60;;;0.30;99.90;;;;;;5015488;28;20026;-67
2021/11/25 03:15:35;;;;;;;18.92;8.40;;;0.30;99.90;;;;;;5023642;28;20053;-67
2021/11/25 03:18:01;;;;;;;16.75;9.15;;;0.40;99.90;;;;;;5023185;28;20036;-67
2021/11/25 03:20:27;;;;;;;15.73;9.98;;;0.30;99.90;;;;;;5006043;28;20022;-67
2021/11/25 03:22:53;;;;;;;14.32;7.72;;;0.30;99.90;;;;;;5017525;28;20095;-67
2021/11/25 03:25:19;;;;;;;14.40;6.88;;;0.30;99.90;;;;;;5001289;28;20049;-67
2021/11/25 03:27:44;;;;;;;17.33;8.07;;;0.30;99.90;;;;;;5019612;28;20107;-67
2021/11/25 03:30:10;;;;;;;20.08;8.50;;;0.30;99.90;;;;;;5017621;28;20030;-67
2021/11/25 03:32:36;;;;;;;13.40;7.22;;;0.30;99.90;;;;;;5020898;28;20041;-67
2021/11/25 03:35:02;;;;;;;21.08;9.25;;;0.40;99.90;;;;;;5021820;28;20479;-67
2021/11/25 03:37:28;;;;;;;12.93;6.63;;;0.40;99.90;;;;;;5018571;28;20033;-67
2021/11/25 03:39:54;;;;;;;16.85;8.40;;;0.40;99.90;;;;;;5019591;28;20022;-67
2021/11/25 03:42:19;;;;;;;17.90;7.80;;;0.50;99.90;;;;;;5020109;28;20029;-67
2021/11/25 03:44:46;;;;;;;22.00;8.60;;;0.40;99.90;;;;;;5002573;28;21064;-67
2021/11/25 03:47:12;;;;;;;18.83;9.80;;;0.40;99.90;;;;;;5023265;28;20071;-67
2021/11/25 03:49:39;;;;;;;15.63;8.55;;;0.40;99.90;;;;;;5018769;28;20105;-68
2021/11/25 03:52:05;;;;;;;13.00;6.43;;;0.40;99.90;;;;;;5001342;28;20091;-67
2021/11/25 03:54:31;;;;;;;19.88;7.63;;;0.40;99.90;;;;;;5023176;28;20469;-67
2021/11/25 03:56:56;;;;;;;30.63;12.98;;;0.40;99.90;;;;;;5019164;28;20052;-67
2021/11/25 03:59:22;;;;;;;26.15;12.15;;;0.40;99.90;;;;;;5022795;28;20026;-67
2021/11/25 04:01:48;;;;;;;19.73;9.02;;;0.40;99.90;;;;;;5021646;28;20121;-67
2021/11/25 04:04:13;;;;;;;32.83;10.57;;;0.40;99.90;;;;;;5020671;28;20037;-66
2021/11/25 04:06:39;;;;;;;23.90;8.57;;;0.40;99.90;;;;;;5022358;28;20944;-67
2021/11/25 04:09:05;;;;;;;21.45;9.05;;;0.40;99.90;;;;;;5021399;28;20030;-67
2021/11/25 04:11:30;;;;;;;18.38;8.93;;;0.50;99.90;;;;;;5020355;28;20888;-67
2021/11/25 04:14:00;;;;;;;17.67;8.13;;;0.50;99.90;;;;;;5020355;28;20038;-67
2021/11/25 04:16:25;;;;;;;29.30;8.77;;;0.50;99.90;;;;;;4999937;28;20090;-67
2021/11/25 04:18:51;;;;;;;14.82;7.28;;;0.50;99.90;;;;;;5017366;28;20445;-67
2021/11/25 04:21:17;;;;;;;18.67;6.97;;;0.60;99.90;;;;;;5021977;28;20032;-67
2021/11/25 04:23:42;;;;;;;18.83;7.90;;;0.60;99.90;;;;;;5017686;28;21649;-67
2021/11/25 04:26:08;;;;;;;20.77;8.68;;;0.50;99.90;;;;;;5020917;28;20025;-67
2021/11/25 04:28:33;;;;;;;19.25;7.82;;;0.60;99.90;;;;;;5021543;28;20030;-67
2021/11/25 04:36:27;;;;;;;14.43;7.78;;;0.60;99.90;;;;;;5019443;28;20040;-66
2021/11/25 04:38:53;;;;;;;14.77;6.90;;;0.60;99.90;;;;;;5020982;28;20029;-66
2021/11/25 04:41:18;;;;;;;16.75;9.55;;;0.60;99.90;;;;;;5021212;28;20033;-66
2021/11/25 04:43:44;;;;;;;15.90;7.97;;;0.50;99.90;;;;;;5019919;28;20029;-66
2021/11/25 04:46:10;;;;;;;13.30;7.25;;;0.50;99.90;;;;;;5020417;28;20030;-66
2021/11/25 04:48:36;;;;;;;14.93;7.80;;;0.50;99.90;;;;;;5019031;28;20029;-66
2021/11/25 04:51:01;;;;;;;16.77;8.18;;;0.50;99.90;;;;;;5020354;28;20033;-66
2021/11/25 04:53:28;;;;;;;17.52;7.22;;;0.50;99.90;;;;;;5018199;28;20046;-66
2021/11/25 04:55:53;;;;;;;12.05;6.80;;;0.50;99.90;;;;;;5020900;28;20036;-66
2021/11/25 04:58:19;;;;;;;14.10;7.07;;;0.40;99.90;;;;;;5017542;28;20021;-66
2021/11/25 05:00:45;;;;;;;14.30;7.35;;;0.50;99.90;;;;;;5016293;28;20129;-66
2021/11/25 05:03:11;;;;;;;14.23;7.90;;;0.50;99.90;;;;;;5020436;28;20168;-67
2021/11/25 05:05:37;;;;;;;18.05;7.50;;;0.50;99.90;;;;;;5018845;28;20114;-66
2021/11/25 05:08:03;;;;;;;14.02;6.28;;;0.50;99.90;;;;;;5018738;28;20529;-66
2021/11/25 05:10:29;;;;;;;17.13;8.25;;;0.50;99.90;;;;;;5020879;28;20079;-67
2021/11/25 05:12:55;;;;;;;13.82;6.85;;;0.40;99.90;;;;;;5019473;28;20038;-66
2021/11/25 05:15:21;;;;;;;16.10;7.07;;;0.50;99.90;;;;;;5021244;28;20116;-66
2021/11/25 05:17:48;;;;;;;14.23;7.97;;;0.50;99.90;;;;;;5019571;28;21020;-67
2021/11/25 05:20:15;;;;;;;13.35;7.00;;;0.50;99.90;;;;;;5019505;28;20037;-66
2021/11/25 05:22:41;;;;;;;14.25;7.25;;;0.50;99.90;;;;;;5017847;28;20033;-67
2021/11/25 05:25:08;;;;;;;15.88;7.05;;;0.50;99.90;;;;;;5014123;28;20489;-67
2021/11/25 05:27:35;;;;;;;13.38;6.82;;;0.40;99.90;;;;;;5020218;28;20033;-66
2021/11/25 05:30:01;;;;;;;15.80;7.22;;;0.40;99.90;;;;;;5021179;28;20575;-66
2021/11/25 05:32:26;;;;;;;13.77;6.93;;;0.40;99.90;;;;;;5019020;28;20079;-66
2021/11/25 05:34:52;;;;;;;12.60;6.28;;;0.40;99.90;;;;;;5017655;28;20109;-67
2021/11/25 05:37:18;;;;;;;14.35;7.40;;;0.40;99.90;;;;;;5020751;28;20029;-66
2021/11/25 05:39:45;;;;;;;10.52;5.68;;;0.40;99.90;;;;;;5019247;28;20033;-67
2021/11/25 05:42:11;;;;;;;10.43;6.03;;;0.40;99.90;;;;;;5003305;28;20033;-66
2021/11/25 05:44:37;;;;;;;11.68;6.30;;;0.30;99.90;;;;;;5017506;28;20034;-67
2021/11/25 05:47:04;;;;;;;12.98;7.28;;;0.30;99.90;;;;;;5020495;28;20030;-66
2021/11/25 05:49:30;;;;;;;16.25;6.40;;;0.30;99.90;;;;;;5000210;28;20400;-67
2021/11/25 05:51:56;;;;;;;13.05;6.10;;;0.20;99.90;;;;;;5017163;28;20038;-67
2021/11/25 05:54:22;;;;;;;13.63;7.90;;;0.30;99.90;;;;;;5018819;28;20032;-66
2021/11/25 05:56:47;;;;;;;14.73;6.95;;;0.30;99.90;;;;;;5020715;28;20032;-66
2021/11/25 05:59:13;;;;;;;11.73;6.53;;;0.20;99.90;;;;;;5017440;28;20047;-66
2021/11/25 06:01:40;;;;;;;9.40;5.75;;;0.20;99.90;;;;;;4999676;28;20487;-66
2021/11/25 06:04:05;;;;;;;10.20;5.72;;;0.20;99.90;;;;;;5014968;28;20065;-67
2021/11/25 06:06:31;;;;;;;12.80;6.47;;;0.20;99.90;;;;;;5014197;28;20444;-66
2021/11/25 06:08:57;;;;;;;14.35;7.22;;;0.30;99.90;;;;;;5020905;28;20088;-66
2021/11/25 06:11:22;;;;;;;11.23;6.60;;;0.30;99.90;;;;;;5019337;28;20069;-66
2021/11/25 06:13:48;;;;;;;9.90;6.05;;;0.30;99.90;;;;;;5022298;28;20502;-66
2021/11/25 06:16:14;;;;;;;15.82;7.18;;;0.30;99.90;;;;;;5018490;28;20028;-66
2021/11/25 06:18:39;;;;;;;10.93;7.28;;;0.30;99.90;;;;;;5000965;28;20033;-66
2021/11/25 06:21:06;;;;;;;16.27;8.30;;;0.30;99.90;;;;;;5019624;28;20494;-66
2021/11/25 06:23:32;;;;;;;11.95;7.03;;;0.20;99.90;;;;;;5001144;28;20494;-66
2021/11/25 06:25:57;;;;;;;12.35;7.15;;;0.20;99.90;;;;;;5019741;28;20038;-66
2021/11/25 06:28:23;;;;;;;11.73;6.85;;;0.10;99.90;;;;;;5019158;28;20075;-66
2021/11/25 06:30:49;;;;;;;13.60;6.78;;;0.10;99.90;;;;;;5012404;28;20037;-67
2021/11/25 06:33:14;;;;;;;14.70;7.95;;;0.10;99.90;;;;;;5014287;28;20040;-67
2021/11/25 06:35:40;;;;;;;11.90;6.70;;;0.00;99.90;;;;;;5017841;28;20025;-66
2021/11/25 06:38:07;;;;;;;12.88;6.78;;;0.00;99.90;;;;;;5016717;28;20104;-67
2021/11/25 06:40:35;;;;;;;14.02;6.47;;;0.00;99.90;;;;;;5018950;28;20013;-66
2021/11/25 06:43:03;;;;;;;18.85;7.50;;;0.00;99.90;;;;;;5000393;28;20076;-66
2021/11/25 06:45:29;;;;;;;25.92;12.07;;;0.10;99.90;;;;;;5018104;28;20048;-66
2021/11/25 06:47:55;;;;;;;14.88;7.80;;;0.10;99.90;;;;;;5016274;28;20025;-67
2021/11/25 06:50:24;;;;;;;17.80;7.05;;;0.10;99.90;;;;;;5017984;28;21680;-67
2021/11/25 06:52:49;;;;;;;13.35;5.50;;;0.10;99.90;;;;;;5017505;28;20080;-67
2021/11/25 06:55:17;;;;;;;23.30;11.10;;;0.10;99.90;;;;;;5017561;28;20026;-66
2021/11/25 06:57:47;;;;;;;14.13;8.02;;;0.10;99.90;;;;;;5017976;28;20048;-67
2021/11/25 07:00:15;;;;;;;13.32;7.65;;;0.10;99.90;;;;;;5018600;28;20021;-67
2021/11/25 07:02:41;;;;;;;14.30;7.77;;;0.10;99.90;;;;;;5014292;28;20037;-67
2021/11/25 07:05:08;;;;;;;26.08;12.05;;;0.10;99.90;;;;;;5019139;28;20760;-66
2021/11/25 07:07:35;;;;;;;15.02;8.30;;;0.10;99.90;;;;;;5016507;28;20029;-67
2021/11/25 07:10:01;;;;;;;14.52;7.68;;;0.10;99.90;;;;;;4999266;28;20113;-67
2021/11/25 07:12:27;;;;;;;12.95;7.32;;;0.20;99.90;;;;;;5020263;28;20037;-66
2021/11/25 07:14:52;;;;;;;10.80;6.45;;;0.10;99.90;;;;;;5018732;28;20025;-67
2021/11/25 07:17:18;;;;;;;12.75;6.97;;;0.10;99.90;;;;;;5015642;28;20124;-67
2021/11/25 07:19:44;;;;;;;11.43;6.72;;;0.10;99.90;;;;;;5016257;28;20041;-67
2021/11/25 07:22:09;;;;;;;9.20;5.35;;;0.10;99.90;;;;;;5001470;28;20060;-67
2021/11/25 07:24:35;;;;;;;13.40;6.65;;;0.10;99.90;;;;;;5023930;28;20026;-67
2021/11/25 07:27:03;;;;;;;11.00;5.95;;;0.10;99.90;;;;;;5024696;28;20030;-67
2021/11/25 07:29:29;;;;;;;20.33;9.00;;;0.10;99.90;;;;;;5017762;28;20028;-67
2021/11/25 07:31:55;;;;;;;12.43;7.43;;;0.20;99.90;;;;;;5021491;28;20038;-66
2021/11/25 07:34:21;;;;;;;14.40;8.00;;;0.20;99.90;;;;;;5020595;28;20044;-66
2021/11/25 07:36:46;;;;;;;12.15;6.60;;;0.30;99.90;;;;;;5020855;28;20029;-66
2021/11/25 07:39:12;;;;;;;14.15;7.85;;;0.30;99.90;;;;;;5005079;28;20167;-67
2021/11/25 07:41:39;;;;;;;15.82;7.82;;;0.30;99.90;;;;;;5020707;28;20811;-66
2021/11/25 07:44:06;;;;;;;15.85;8.45;;;0.30;99.90;;;;;;5006595;28;21414;-66
2021/11/25 07:46:32;;;;;;;15.63;7.28;;;0.30;99.90;;;;;;5005558;28;20029;-66
2021/11/25 07:48:59;;;;;;;13.73;7.13;;;0.30;99.90;;;;;;5020643;28;20037;-66
2021/11/25 07:51:25;;;;;;;13.30;6.78;;;0.30;99.90;;;;;;5020409;28;20486;-67
2021/11/25 07:53:50;;;;;;;12.35;6.80;;;0.20;99.90;;;;;;5021091;28;20042;-67
2021/11/25 07:56:16;;;;;;;11.15;6.43;;;0.20;99.90;;;;;;5023584;28;20446;-66
2021/11/25 07:58:42;;;;;;;14.98;7.60;;;0.30;99.90;;;;;;5023329;28;20158;-66
2021/11/25 08:01:07;;;;;;;17.30;7.30;;;0.20;99.90;;;;;;5015725;28;20034;-66
2021/11/25 08:03:33;;;;;;;13.77;6.05;;;0.20;99.90;;;;;;5004715;28;20053;-66
2021/11/25 08:05:59;;;;;;;10.73;6.55;;;0.30;99.90;;;;;;5022118;28;20044;-66
2021/11/25 08:08:24;;;;;;;31.25;9.63;;;0.20;99.90;;;;;;5004415;28;20068;-67
2021/11/25 08:10:50;;;;;;;17.95;8.35;;;0.20;99.90;;;;;;5022259;28;20068;-67
2021/11/25 08:13:16;;;;;;;19.42;8.10;;;0.30;99.90;;;;;;5021670;28;20466;-67
2021/11/25 08:15:42;;;;;;;21.23;9.18;;;0.20;99.90;;;;;;5018301;28;20029;-67
2021/11/25 08:18:07;;;;;;;18.52;8.23;;;0.20;99.90;;;;;;5022281;28;20080;-66
2021/11/25 08:20:33;;;;;;;12.35;6.50;;;0.20;99.90;;;;;;5021433;28;20021;-66
2021/11/25 08:22:59;;;;;;;15.77;7.68;;;0.20;99.90;;;;;;4998064;28;20056;-66
2021/11/25 08:25:26;;;;;;;14.05;7.07;;;0.10;99.90;;;;;;5004895;28;20116;-66
2021/11/25 08:27:55;;;;;;;15.30;7.13;;;0.10;99.90;;;;;;5020823;28;20030;-66
2021/11/25 08:30:23;;;;;;;13.65;8.10;;;0.10;99.90;;;;;;5000353;28;20029;-66
2021/11/25 08:32:49;;;;;;;12.45;6.47;;;0.10;99.90;;;;;;5004197;28;20036;-66
2021/11/25 08:35:15;;;;;;;14.00;7.57;;;0.10;99.90;;;;;;5020642;28;20565;-67
2021/11/25 08:37:42;;;;;;;11.13;5.80;;;0.20;99.90;;;;;;5004026;28;20135;-67
2021/11/25 08:40:10;;;;;;;17.15;8.18;;;0.20;99.90;;;;;;5019085;28;20018;-66
2021/11/25 08:42:36;;;;;;;19.30;7.47;;;0.20;99.90;;;;;;5022015;28;20040;-66
2021/11/25 08:45:03;;;;;;;13.85;7.20;;;0.20;99.90;;;;;;5022302;28;20037;-66
2021/11/25 08:47:29;;;;;;;15.13;7.22;;;0.30;99.90;;;;;;5002570;28;20702;-66
2021/11/25 08:49:55;;;;;;;13.80;6.60;;;0.30;99.90;;;;;;5000737;28;20033;-67
2021/11/25 08:52:20;;;;;;;13.35;7.75;;;0.30;99.90;;;;;;5000743;28;20143;-67
2021/11/25 08:54:46;;;;;;;14.88;7.35;;;0.20;99.90;;;;;;5021099;28;20037;-66
2021/11/25 08:57:12;;;;;;;14.77;7.78;;;0.20;99.90;;;;;;5019143;28;20048;-66
2021/11/25 08:59:37;;;;;;;10.30;6.07;;;0.10;99.90;;;;;;5020928;28;20025;-66
2021/11/25 09:02:03;;;;;;;14.52;7.60;;;0.20;99.90;;;;;;5016865;28;20087;-66
2021/11/25 09:04:30;;;;;;;13.80;6.85;;;0.20;99.90;;;;;;5019382;28;20018;-66
2021/11/25 09:06:57;;;;;;;16.42;7.25;;;0.20;99.90;;;;;;5011389;28;20021;-67
2021/11/25 09:09:22;;;;;;;11.85;7.00;;;0.20;99.90;;;;;;5002788;28;20021;-66
2021/11/25 09:11:48;;;;;;;14.02;6.60;;;0.20;99.90;;;;;;5021000;28;20592;-66
2021/11/25 09:14:14;;;;;;;13.93;8.63;;;0.20;99.90;;;;;;5015947;28;20080;-67
2021/11/25 09:16:40;;;;;;;15.35;6.53;;;0.20;99.90;;;;;;5022855;28;20475;-66
2021/11/25 09:19:06;;;;;;;11.23;6.85;;;0.20;99.90;;;;;;5019731;28;20037;-66
2021/11/25 09:21:32;;;;;;;15.43;8.73;;;0.20;99.90;;;;;;5018528;28;21063;-66
2021/11/25 09:24:04;;;;;;;10.57;6.80;;;0.20;99.90;;;;;;5003084;28;20029;-66
2021/11/25 09:26:31;;;;;;;16.25;7.25;;;0.10;99.90;;;;;;5020474;28;20021;-66
2021/11/25 09:28:58;;;;;;;14.30;8.27;;;0.20;99.90;;;;;;5019318;28;20061;-67
2021/11/25 09:31:29;;;;;;;17.02;8.00;;;0.20;99.90;;;;;;4998175;28;20057;-66
2021/11/25 09:33:55;;;;;;;16.10;8.02;;;0.10;99.90;;;;;;5018601;28;20124;-67
2021/11/25 09:36:23;;;;;;;13.57;7.43;;;0.20;99.90;;;;;;5021396;28;20100;-66
2021/11/25 09:38:49;;;;;;;17.63;7.95;;;0.30;99.90;;;;;;5015828;28;20026;-67
2021/11/25 09:41:15;;;;;;;12.88;7.18;;;0.30;99.90;;;;;;5008599;28;20017;-67
2021/11/25 09:43:42;;;;;;;14.68;7.53;;;0.30;99.90;;;;;;4998477;28;20393;-67
2021/11/25 09:46:09;;;;;;;14.90;7.78;;;0.30;99.90;;;;;;5020306;28;20035;-67
2021/11/25 09:48:37;;;;;;;17.20;8.05;;;0.40;99.90;;;;;;5005887;28;20505;-67
2021/11/25 09:51:05;;;;;;;14.88;7.60;;;0.40;99.90;;;;;;5004727;28;20061;-67
2021/11/25 09:53:31;;;;;;;14.90;6.65;;;0.40;99.90;;;;;;5018572;28;20525;-66
2021/11/25 09:55:57;;;;;;;12.93;6.72;;;0.40;99.90;;;;;;5019389;28;20491;-66
2021/11/25 09:58:27;;;;;;;11.57;6.28;;;0.40;99.90;;;;;;5019905;28;20762;-67
2021/11/25 10:00:56;;;;;;;15.55;7.55;;;0.40;99.90;;;;;;5019173;28;20040;-66
2021/11/25 10:03:23;;;;;;;14.88;6.35;;;0.40;99.90;;;;;;5001980;28;20818;-67
2021/11/25 10:05:55;;;;;;;12.50;7.13;;;0.50;99.90;;;;;;5021156;28;20104;-66
2021/11/25 10:08:44;;;;;;;18.40;8.05;;;0.40;99.90;;;;;;5019051;28;20573;-67
2021/11/25 10:11:13;;;;;;;15.98;8.10;;;0.40;99.90;;;;;;5002055;28;20398;-66
2021/11/25 10:13:39;;;;;;;13.85;7.13;;;0.30;99.90;;;;;;5017189;28;20037;-67
2021/11/25 10:16:11;;;;;;;18.05;7.20;;;0.30;99.90;;;;;;5019597;28;20418;-66
2021/11/25 10:18:37;;;;;;;11.25;6.40;;;0.30;99.90;;;;;;5019655;28;20021;-67
2021/11/25 10:21:07;;;;;;;14.02;7.10;;;0.30;99.90;;;;;;5018506;28;20036;-66
2021/11/25 10:23:34;;;;;;;19.25;8.18;;;0.30;99.90;;;;;;5019665;28;20055;-67
2021/11/25 10:26:09;;;;;;;12.93;7.43;;;0.40;99.90;;;;;;5000174;28;20022;-67
2021/11/25 10:28:38;;;;;;;15.60;8.10;;;0.40;99.90;;;;;;5019730;28;20517;-66
2021/11/25 10:31:11;;;;;;;13.80;7.15;;;0.40;99.90;;;;;;5016861;28;20041;-66
2021/11/25 10:33:47;;;;;;;10.90;7.03;;;0.50;99.90;;;;;;5001637;28;20469;-67
2021/11/25 10:38:57;;;;;;;14.82;6.72;;;0.50;99.90;;;;;;5017030;28;20040;-66
2021/11/25 10:41:24;;;;;;;16.75;6.93;;;0.50;99.90;;;;;;5019927;28;20197;-67
2021/11/25 10:44:15;;;;;;;12.85;7.53;;;0.50;99.90;;;;;;5021070;28;20033;-67
2021/11/25 10:47:02;;;;;;;16.38;7.38;;;0.50;99.90;;;;;;5015197;28;20249;-66
2021/11/25 10:49:33;;;;;;;16.05;8.07;;;0.40;99.90;;;;;;4997183;28;20219;-67
2021/11/25 10:52:00;;;;;;;11.98;6.85;;;0.50;99.90;;;;;;5018272;28;20056;-67
2021/11/25 10:54:27;;;;;;;13.80;6.60;;;0.50;99.90;;;;;;5016457;28;20061;-67
2021/11/25 10:56:56;;;;;;;14.40;7.40;;;0.50;99.90;;;;;;5015064;28;20029;-67
2021/11/25 10:59:35;;;;;;;16.15;6.95;;;0.50;99.90;;;;;;5021484;28;20047;-67
2021/11/25 11:02:00;;;;;;;;;;;0.60;99.90;;;;;;5004969;28;20791;-66
2021/11/25 11:04:28;;;;;;;16.77;7.30;;;0.60;99.90;;;;;;5022564;28;19913;-66
2021/11/25 11:06:55;;;;;;;12.00;6.00;;;0.60;99.90;;;;;;5003829;28;20410;-66
2021/11/25 11:09:39;;;;;;;12.60;7.55;;;0.60;99.90;;;;;;5002552;28;20113;-67
2021/11/25 11:12:28;;;;;;;18.80;9.30;;;0.60;99.90;;;;;;5020325;28;20491;-66
2021/11/25 11:14:56;;;;;;;15.05;7.63;;;0.60;99.90;;;;;;5005858;28;20034;-66
2021/11/25 11:17:30;;;;;;;15.73;7.83;;;0.50;99.90;;;;;;5003695;28;20120;-66
2021/11/25 11:20:22;;;;;;;15.85;7.68;;;0.50;99.90;;;;;;5006717;28;20064;-66
2021/11/25 11:23:07;;;;;;;12.95;6.97;;;0.60;99.90;;;;;;5023098;28;20041;-66
2021/11/25 11:25:35;;;;;;;15.52;7.80;;;0.60;99.90;;;;;;5019995;28;20025;-67
2021/11/25 11:28:03;;;;;;;16.80;9.38;;;0.60;99.90;;;;;;5013969;28;20102;-66
2021/11/25 11:30:29;;;;;;;15.50;8.35;;;0.60;99.90;;;;;;5002797;28;20029;-66
2021/11/25 11:32:55;;;;;;;13.98;7.03;;;0.60;99.90;;;;;;5021708;28;20432;-66
2021/11/25 11:35:23;;;;;;;17.80;7.68;;;0.50;99.90;;;;;;5023332;28;20049;-67
2021/11/25 11:37:54;;;;;;;13.50;7.60;;;0.50;99.90;;;;;;5021222;28;20040;-66
2021/11/25 11:40:23;;;;;;;12.15;6.07;;;0.60;99.90;;;;;;5006874;28;20394;-66
2021/11/25 11:42:51;;;;;;;12.60;7.03;;;0.60;99.90;;;;;;5007039;28;20036;-67
2021/11/25 11:45:18;;;;;;;14.75;6.25;;;0.60;99.90;;;;;;5023966;28;20025;-68
2021/11/25 11:47:44;;;;;;;14.27;6.97;;;0.70;99.90;;;;;;5001172;28;20022;-67
2021/11/25 11:50:11;;;;;;;12.10;7.18;;;0.70;99.90;;;;;;5020365;28;20026;-67
2021/11/25 11:53:12;;;;;;;15.75;7.28;;;0.70;99.90;;;;;;5024777;28;20073;-67
2021/11/25 11:55:43;;;;;;;14.80;6.32;;;0.70;99.90;;;;;;5020261;28;20064;-67
2021/11/25 11:58:31;;;;;;;12.10;6.82;;;0.60;99.90;;;;;;5015536;28;20029;-68
2021/11/25 12:01:14;;;;;;;16.52;6.93;;;0.60;99.90;;;;;;5019738;28;20045;-68
2021/11/25 12:03:41;;;;;;;16.67;6.20;;;0.60;99.90;;;;;;5023129;28;20113;-67
2021/11/25 12:06:08;;;;;;;12.80;8.02;;;0.50;99.90;;;;;;5017905;28;20482;-68
2021/11/25 12:08:37;;;;;;;15.70;7.10;;;0.50;99.90;;;;;;5020132;28;20040;-67
2021/11/25 12:11:04;;;;;;;11.73;6.35;;;0.50;99.90;;;;;;5022232;28;20026;-67
2021/11/25 12:13:54;;;;;;;17.27;8.00;;;0.60;99.90;;;;;;5022984;28;21652;-68
2021/11/25 12:16:19;;;;;;;13.82;6.32;;;0.50;99.90;;;;;;5007467;28;20021;-67
2021/11/25 12:18:54;;;;;;;12.10;6.13;;;0.60;99.90;;;;;;5021797;28;20037;-67
2021/11/25 12:21:40;;;;;;;16.25;6.47;;;0.60;99.90;;;;;;5016034;28;20030;-67
2021/11/25 12:24:17;;;;;;;15.75;7.88;;;0.70;99.90;;;;;;5014599;28;20128;-67
2021/11/25 12:27:01;;;;;;;17.48;7.03;;;0.60;99.90;;;;;;5023339;28;20036;-68
2021/11/25 12:29:35;;;;;;;13.95;6.93;;;0.60;99.90;;;;;;5008614;28;20124;-67
2021/11/25 12:35:04;;;;;;;16.33;8.13;;;0.70;99.90;;;;;;5021393;28;20397;-68
2021/11/25 12:37:52;;;;;;;18.63;7.47;;;0.60;99.90;;;;;;4998482;28;20036;-67
2021/11/25 12:40:18;;;;;;;13.25;7.20;;;0.60;99.90;;;;;;5022610;28;20387;-68
2021/11/25 12:42:48;;;;;;;17.65;7.90;;;0.50;99.90;;;;;;5022223;28;20105;-67
2021/11/25 12:45:21;;;;;;;16.95;7.35;;;0.60;99.90;;;;;;5003850;28;20393;-67
2021/11/25 12:47:47;;;;;;;11.23;6.50;;;0.60;99.90;;;;;;5003763;28;20033;-67
2021/11/25 12:50:18;;;;;;;12.65;6.10;;;0.60;99.90;;;;;;5022568;28;20032;-68
2021/11/25 12:52:43;;;;;;;17.50;7.93;;;0.60;99.90;;;;;;5002647;28;20132;-67
2021/11/25 12:55:11;;;;;;;16.27;7.80;;;0.60;99.90;;;;;;5022653;28;20112;-67
2021/11/25 12:57:50;;;;;;;13.43;8.35;;;0.40;99.90;;;;;;5000519;28;20030;-67
2021/11/25 13:00:21;;;;;;;14.40;6.85;;;0.40;99.90;;;;;;5006543;28;20029;-67
2021/11/25 13:02:46;;;;;;;12.60;5.20;;;0.30;99.90;;;;;;5018194;28;20060;-68